Time;durP1;ratioP1;P1;durP2;ratioP2;P2;SDS_P1;SDS_P2;PMS_P1;PMS_P2;Temp;Humidity;BMP_temperature;BMP_pressure;BME280_temperature;BME280_humidity;BME280_pressure;Samples;Min_cycle;Max_cycle;Signal;HPM_P1;HPM_P2
2024/02/29 00:02:05;;;;;;;35.57;15.30;;;2.20;99.90;;;;;;5104852;28;20735;-79
2024/02/29 00:04:33;;;;;;;34.57;17.17;;;2.20;99.90;;;;;;5107469;28;20244;-79
2024/02/29 00:07:02;;;;;;;36.53;16.90;;;2.10;99.90;;;;;;5110256;28;20212;-79
2024/02/29 00:09:29;;;;;;;31.87;16.00;;;2.00;99.90;;;;;;5103333;28;20221;-79
2024/02/29 00:11:56;;;;;;;34.70;16.30;;;1.90;99.90;;;;;;5104877;28;20201;-79
2024/02/29 00:14:23;;;;;;;30.63;15.30;;;1.90;99.90;;;;;;5110469;28;20203;-78
2024/02/29 00:16:50;;;;;;;31.30;14.90;;;2.00;1.00;;;;;;5112124;28;20209;-79
2024/02/29 00:19:17;;;;;;;34.00;15.80;;;1.90;99.90;;;;;;5102653;28;20259;-78
2024/02/29 00:21:46;;;;;;;31.17;14.17;;;2.00;99.90;;;;;;5101071;28;20601;-78
2024/02/29 00:24:14;;;;;;;30.10;14.40;;;2.00;99.90;;;;;;5099048;28;20213;-78
2024/02/29 00:26:41;;;;;;;30.17;14.20;;;2.00;99.90;;;;;;5098886;28;20205;-78
2024/02/29 00:29:09;;;;;;;30.67;13.93;;;2.10;99.90;;;;;;5097961;28;20220;-79
2024/02/29 00:31:36;;;;;;;29.53;14.80;;;2.10;99.90;;;;;;5099251;28;20296;-79
2024/02/29 00:34:03;;;;;;;31.20;14.20;;;2.30;99.90;;;;;;5098229;28;20198;-78
2024/02/29 00:36:30;;;;;;;27.53;13.83;;;2.10;1.00;;;;;;5099650;28;20923;-78
2024/02/29 00:38:57;;;;;;;27.93;13.60;;;2.30;99.90;;;;;;5106133;28;20200;-78
2024/02/29 00:41:25;;;;;;;33.30;14.50;;;2.30;24.40;;;;;;5104658;28;20223;-78
2024/02/29 00:43:52;;;;;;;30.03;14.27;;;2.30;1.00;;;;;;5101045;28;20271;-78
2024/02/29 00:46:19;;;;;;;31.53;15.13;;;2.20;1.00;;;;;;5106861;28;20614;-77
2024/02/29 00:48:46;;;;;;;30.63;14.20;;;2.10;76.60;;;;;;5105615;28;20295;-79
2024/02/29 00:51:13;;;;;;;29.13;13.67;;;2.30;1.00;;;;;;5104252;28;20200;-78
2024/02/29 00:53:40;;;;;;;28.23;12.67;;;2.30;1.00;;;;;;5103460;28;20202;-78
2024/02/29 00:56:08;;;;;;;27.13;12.73;;;2.30;1.00;;;;;;5105383;28;20292;-78
2024/02/29 00:58:36;;;;;;;30.50;12.57;;;2.40;1.00;;;;;;5106326;28;20205;-79
2024/02/29 01:01:03;;;;;;;26.27;13.13;;;2.40;1.00;;;;;;5105341;28;20221;-78
2024/02/29 01:03:30;;;;;;;32.30;14.00;;;2.50;1.00;;;;;;5108366;28;20292;-78
2024/02/29 01:05:57;;;;;;;27.60;13.13;;;2.70;1.00;;;;;;5106462;28;20707;-79
2024/02/29 01:08:24;;;;;;;30.87;14.13;;;2.80;1.00;;;;;;5109784;28;20205;-79
2024/02/29 01:10:51;;;;;;;26.63;12.47;;;2.70;1.00;;;;;;5109205;28;20654;-78
2024/02/29 01:13:18;;;;;;;26.27;13.03;;;2.80;1.00;;;;;;5106122;28;20253;-77
2024/02/29 01:15:46;;;;;;;23.27;12.07;;;3.20;99.90;;;;;;5105429;28;20197;-78
2024/02/29 01:18:13;;;;;;;27.03;13.00;;;3.20;99.90;;;;;;5109986;28;21107;-78
2024/02/29 01:20:40;;;;;;;25.93;11.53;;;3.00;93.50;;;;;;5099404;28;20248;-78
2024/02/29 01:23:06;;;;;;;26.73;12.67;;;2.90;99.90;;;;;;5103577;28;20723;-78
2024/02/29 01:25:33;;;;;;;24.77;11.97;;;3.00;99.90;;;;;;5100758;28;20231;-78
2024/02/29 01:28:00;;;;;;;27.30;12.83;;;3.50;99.90;;;;;;5097918;28;20651;-78
2024/02/29 01:30:27;;;;;;;28.30;13.20;;;3.70;1.00;;;;;;5098215;28;20311;-78
2024/02/29 01:32:55;;;;;;;26.90;12.63;;;3.60;1.00;;;;;;5098857;28;20291;-79
2024/02/29 01:35:22;;;;;;;22.90;10.90;;;3.60;1.00;;;;;;5097658;28;20297;-79
2024/02/29 01:37:50;;;;;;;24.30;11.97;;;3.80;1.00;;;;;;5105355;28;20234;-79
2024/02/29 01:40:18;;;;;;;24.30;12.67;;;3.80;1.00;;;;;;5098361;28;20245;-78
2024/02/29 01:42:45;;;;;;;23.63;11.10;;;3.60;1.00;;;;;;5100638;28;20197;-78
2024/02/29 01:45:13;;;;;;;25.57;11.90;;;3.40;1.00;;;;;;5106040;28;20249;-78
2024/02/29 01:47:41;;;;;;;24.50;11.50;;;3.60;1.00;;;;;;5104176;28;20206;-78
2024/02/29 01:50:11;;;;;;;23.73;12.17;;;3.50;1.00;;;;;;5099654;28;20221;-77
2024/02/29 01:52:40;;;;;;;33.73;11.13;;;3.20;1.00;;;;;;5103845;28;20215;-77
2024/02/29 01:55:08;;;;;;;27.17;12.33;;;3.10;1.00;;;;;;5103683;28;20276;-78
2024/02/29 01:57:35;;;;;;;24.53;11.57;;;3.40;1.00;;;;;;5105741;28;20232;-78
2024/02/29 02:00:04;;;;;;;24.33;11.73;;;3.20;1.00;;;;;;5105481;28;20763;-78
2024/02/29 02:02:31;;;;;;;24.07;11.87;;;3.00;1.00;;;;;;5106736;28;20701;-78
2024/02/29 02:04:58;;;;;;;24.90;11.43;;;2.80;1.00;;;;;;5103260;28;20316;-78
2024/02/29 02:07:26;;;;;;;23.33;11.23;;;2.70;1.00;;;;;;5108059;28;20197;-78
2024/02/29 02:09:53;;;;;;;25.33;12.17;;;2.40;1.00;;;;;;5102222;28;20304;-78
2024/02/29 02:12:20;;;;;;;23.97;10.87;;;2.80;1.00;;;;;;5105353;28;20198;-78
2024/02/29 02:14:47;;;;;;;23.90;11.83;;;2.80;1.00;;;;;;5103422;28;20197;-78
2024/02/29 02:17:17;;;;;;;23.93;11.47;;;2.50;1.00;;;;;;5105070;28;20201;-77
2024/02/29 02:19:44;;;;;;;23.37;10.80;;;2.50;1.00;;;;;;5107100;28;20240;-78
2024/02/29 02:22:12;;;;;;;24.83;11.47;;;2.60;1.00;;;;;;5097393;28;20274;-77
2024/02/29 02:24:39;;;;;;;23.63;10.83;;;2.40;1.00;;;;;;5098409;28;20231;-78
2024/02/29 02:27:06;;;;;;;26.57;12.67;;;2.30;1.00;;;;;;5102158;28;20232;-77
2024/02/29 02:29:32;;;;;;;23.73;10.83;;;2.30;1.00;;;;;;5098376;28;20222;-78
2024/02/29 02:31:59;;;;;;;22.90;10.50;;;2.40;1.00;;;;;;5098654;28;20723;-78
2024/02/29 02:34:26;;;;;;;22.30;10.47;;;2.40;1.00;;;;;;5099931;28;20228;-78
2024/02/29 02:36:53;;;;;;;23.73;11.00;;;2.40;1.00;;;;;;5101455;28;20262;-79
2024/02/29 02:39:21;;;;;;;22.23;10.90;;;2.30;1.00;;;;;;5102876;28;20252;-79
2024/02/29 02:41:48;;;;;;;25.00;11.17;;;2.40;1.00;;;;;;5103591;28;20198;-78
2024/02/29 02:44:14;;;;;;;22.53;11.37;;;2.40;12.50;;;;;;5100624;28;20206;-78
2024/02/29 02:46:41;;;;;;;23.57;11.13;;;2.30;1.00;;;;;;5103710;28;20212;-79
2024/02/29 02:49:08;;;;;;;22.87;10.20;;;2.50;99.90;;;;;;5104627;28;20308;-79
2024/02/29 02:51:35;;;;;;;26.63;11.13;;;2.40;1.00;;;;;;5112657;28;20236;-78
2024/02/29 02:54:02;;;;;;;21.07;10.67;;;2.30;1.00;;;;;;5107578;28;20715;-78
2024/02/29 02:56:30;;;;;;;23.33;10.80;;;2.70;1.00;;;;;;5105956;28;20269;-78
2024/02/29 02:58:57;;;;;;;21.47;11.07;;;2.70;1.00;;;;;;5109680;28;20201;-78
2024/02/29 03:01:23;;;;;;;23.17;11.43;;;2.50;1.00;;;;;;5113687;28;20268;-78
2024/02/29 03:03:52;;;;;;;21.30;10.13;;;2.30;1.00;;;;;;5111147;27;20275;-78
2024/02/29 03:06:19;;;;;;;22.37;10.50;;;2.10;1.00;;;;;;5111899;28;20239;-78
2024/02/29 03:08:46;;;;;;;25.93;10.70;;;2.00;1.00;;;;;;5113288;28;20223;-78
2024/02/29 03:11:12;;;;;;;24.03;11.53;;;1.90;1.00;;;;;;5112765;28;20715;-79
2024/02/29 03:13:41;;;;;;;26.90;12.27;;;1.90;98.50;;;;;;5112188;28;20300;-78
2024/02/29 03:16:08;;;;;;;23.03;11.03;;;2.20;99.90;;;;;;5112939;28;20232;-78
2024/02/29 03:18:34;;;;;;;25.37;11.23;;;1.90;99.90;;;;;;5118045;28;20232;-79
2024/02/29 03:21:02;;;;;;;24.37;10.90;;;1.80;99.90;;;;;;5107208;28;20217;-78
2024/02/29 03:23:29;;;;;;;25.23;11.00;;;1.80;99.90;;;;;;5102910;28;20275;-78
2024/02/29 03:25:55;;;;;;;23.10;10.47;;;1.70;1.00;;;;;;5106320;28;20232;-79
2024/02/29 03:28:22;;;;;;;22.43;10.30;;;1.70;1.00;;;;;;5107606;28;20204;-78
2024/02/29 03:30:50;;;;;;;23.10;10.53;;;1.80;99.90;;;;;;5100206;28;20228;-79
2024/02/29 03:33:17;;;;;;;23.03;10.43;;;1.80;99.90;;;;;;5098512;28;20266;-78
2024/02/29 03:35:44;;;;;;;21.70;11.10;;;1.90;99.90;;;;;;5100806;28;20284;-78
2024/02/29 03:38:12;;;;;;;22.97;11.20;;;1.90;99.90;;;;;;5102659;28;20557;-77
2024/02/29 03:40:38;;;;;;;22.10;11.00;;;1.80;99.90;;;;;;5100913;28;20612;-78
2024/02/29 03:43:05;;;;;;;23.50;11.10;;;1.80;99.90;;;;;;5099286;28;20261;-78
2024/02/29 03:45:32;;;;;;;25.10;11.43;;;1.80;99.90;;;;;;5099434;28;20236;-78
2024/02/29 03:48:00;;;;;;;25.67;12.07;;;1.90;99.90;;;;;;5099933;28;20739;-78
2024/02/29 03:50:28;;;;;;;23.87;10.90;;;1.80;99.90;;;;;;5102125;28;20229;-78
2024/02/29 03:52:54;;;;;;;24.00;11.80;;;1.80;99.90;;;;;;5100301;28;20728;-78
2024/02/29 03:55:21;;;;;;;25.77;11.70;;;1.70;99.90;;;;;;5103469;28;20209;-78
2024/02/29 03:57:48;;;;;;;24.03;11.27;;;1.80;99.90;;;;;;5106284;28;20296;-79
2024/02/29 04:00:16;;;;;;;23.40;11.00;;;1.90;99.90;;;;;;5109372;28;20218;-78
2024/02/29 04:02:43;;;;;;;26.00;11.60;;;1.90;99.90;;;;;;5106655;28;20280;-78
2024/02/29 04:05:11;;;;;;;23.33;12.00;;;1.80;99.90;;;;;;5110357;28;20237;-78
2024/02/29 04:07:38;;;;;;;24.30;12.00;;;1.80;99.90;;;;;;5113757;28;20201;-79
2024/02/29 04:10:06;;;;;;;26.20;12.07;;;1.80;99.90;;;;;;5109674;28;20256;-79
2024/02/29 04:12:33;;;;;;;24.87;11.47;;;1.80;99.90;;;;;;5114228;28;20722;-78
2024/02/29 04:15:01;;;;;;;28.67;12.23;;;2.20;99.90;;;;;;5111339;28;20294;-79
2024/02/29 04:17:30;;;;;;;23.07;11.40;;;2.30;1.00;;;;;;5110072;28;20230;-78
2024/02/29 04:19:56;;;;;;;25.27;12.17;;;2.20;1.00;;;;;;5110534;28;20308;-78
2024/02/29 04:22:25;;;;;;;23.13;10.50;;;2.50;1.00;;;;;;5104444;28;20212;-78
2024/02/29 04:24:52;;;;;;;23.20;11.77;;;2.50;1.00;;;;;;5098598;28;20284;-78
2024/02/29 04:27:18;;;;;;;24.13;11.10;;;2.80;1.00;;;;;;5104647;28;20261;-78
2024/02/29 04:29:46;;;;;;;27.00;12.90;;;2.70;1.00;;;;;;5104481;27;20300;-78
2024/02/29 04:32:13;;;;;;;24.10;10.90;;;3.00;1.00;;;;;;5099366;28;20204;-79
2024/02/29 04:34:40;;;;;;;22.07;11.07;;;3.00;1.00;;;;;;5101438;28;20225;-79
2024/02/29 04:37:07;;;;;;;23.37;11.33;;;3.10;99.90;;;;;;5101375;28;20289;-79
2024/02/29 04:39:36;;;;;;;25.37;11.80;;;3.10;99.90;;;;;;5100639;28;20224;-78
2024/02/29 04:42:03;;;;;;;23.63;11.47;;;3.30;99.90;;;;;;5100713;28;20273;-79
2024/02/29 04:44:30;;;;;;;23.10;11.33;;;3.50;99.90;;;;;;5099845;28;20240;-78
2024/02/29 04:46:57;;;;;;;22.10;10.67;;;3.50;99.90;;;;;;5100861;28;20284;-79
2024/02/29 04:49:23;;;;;;;24.53;12.73;;;3.40;99.90;;;;;;5101377;28;20308;-78
2024/02/29 04:51:50;;;;;;;24.67;11.77;;;3.20;99.90;;;;;;5097679;28;20202;-79
2024/02/29 04:54:17;;;;;;;21.87;11.00;;;3.20;99.90;;;;;;5101515;28;20753;-78
2024/02/29 04:56:46;;;;;;;22.50;11.33;;;3.00;99.90;;;;;;5098767;28;20194;-78
2024/02/29 04:59:13;;;;;;;23.30;11.60;;;3.10;99.90;;;;;;5106393;28;20695;-78
2024/02/29 05:01:40;;;;;;;20.00;10.13;;;3.40;99.90;;;;;;5102889;28;20692;-78
2024/02/29 05:04:07;;;;;;;22.50;11.43;;;3.30;99.90;;;;;;5109899;28;20288;-79
2024/02/29 05:06:33;;;;;;;21.63;11.17;;;3.10;99.90;;;;;;5111988;28;20493;-79
2024/02/29 05:09:00;;;;;;;22.20;11.47;;;3.30;99.90;;;;;;5109958;28;20224;-79
2024/02/29 05:11:27;;;;;;;24.53;11.33;;;3.20;97.40;;;;;;5107618;28;20201;-79
2024/02/29 05:13:57;;;;;;;21.33;11.43;;;3.20;99.90;;;;;;5112150;28;20207;-79
2024/02/29 05:16:24;;;;;;;22.57;11.30;;;3.40;57.40;;;;;;5114954;28;20197;-78
2024/02/29 05:18:51;;;;;;;22.13;10.80;;;3.10;99.90;;;;;;5114546;28;20288;-79
2024/02/29 05:21:19;;;;;;;24.47;11.17;;;3.20;99.90;;;;;;5108063;28;20198;-77
2024/02/29 05:23:47;;;;;;;22.70;10.53;;;2.90;99.90;;;;;;5095478;28;20229;-77
2024/02/29 05:26:14;;;;;;;21.77;11.70;;;2.80;99.90;;;;;;5103568;28;20581;-78
2024/02/29 05:28:40;;;;;;;22.73;10.83;;;2.90;99.90;;;;;;5101704;28;20209;-78
2024/02/29 05:31:09;;;;;;;24.17;11.33;;;2.90;99.90;;;;;;5098017;28;20665;-77
2024/02/29 05:33:37;;;;;;;23.70;10.47;;;2.80;99.90;;;;;;5095286;28;20712;-79
2024/02/29 05:36:04;;;;;;;20.03;10.07;;;3.30;99.90;;;;;;5095235;28;20198;-78
2024/02/29 05:38:31;;;;;;;21.37;10.43;;;3.20;77.40;;;;;;5098909;28;20215;-78
2024/02/29 05:40:58;;;;;;;19.70;10.40;;;3.20;99.90;;;;;;5095608;28;20308;-78
2024/02/29 05:43:25;;;;;;;22.33;11.10;;;3.20;99.90;;;;;;5094388;28;20210;-78
2024/02/29 05:45:52;;;;;;;19.67;11.20;;;3.10;99.90;;;;;;5098549;28;20202;-78
2024/02/29 05:48:20;;;;;;;21.83;10.30;;;3.10;99.90;;;;;;5097550;28;20284;-78
2024/02/29 05:50:47;;;;;;;21.63;11.03;;;3.20;99.90;;;;;;5095576;28;20221;-78
2024/02/29 05:53:14;;;;;;;22.03;10.67;;;3.10;97.70;;;;;;5098192;28;20285;-78
2024/02/29 05:55:41;;;;;;;21.33;10.50;;;2.90;99.90;;;;;;5099998;28;20572;-78
2024/02/29 05:58:08;;;;;;;22.20;10.40;;;2.80;99.90;;;;;;5100858;28;20654;-78
2024/02/29 06:00:35;;;;;;;22.77;11.27;;;2.80;99.90;;;;;;5098882;28;20312;-78
2024/02/29 06:03:02;;;;;;;23.43;11.43;;;2.80;99.90;;;;;;5099186;28;20285;-78
2024/02/29 06:05:31;;;;;;;20.70;10.67;;;2.50;99.90;;;;;;5097644;28;20304;-78
2024/02/29 06:07:57;;;;;;;24.27;10.23;;;2.20;99.90;;;;;;5100963;28;20666;-78
2024/02/29 06:10:24;;;;;;;22.87;10.90;;;2.60;1.00;;;;;;5111379;28;20281;-78
2024/02/29 06:12:51;;;;;;;22.03;11.23;;;2.40;1.00;;;;;;5115640;28;20204;-77
2024/02/29 06:15:19;;;;;;;21.97;10.53;;;2.50;1.00;;;;;;5108910;28;20579;-79
2024/02/29 06:17:45;;;;;;;24.33;12.17;;;2.90;1.00;;;;;;5118240;28;20610;-79
2024/02/29 06:20:13;;;;;;;21.10;10.87;;;2.90;99.90;;;;;;5116756;28;20309;-79
2024/02/29 06:22:42;;;;;;;22.03;10.40;;;3.10;99.90;;;;;;5105437;28;20676;-79
2024/02/29 06:25:10;;;;;;;20.50;10.67;;;3.10;99.90;;;;;;5100099;28;20649;-79
2024/02/29 06:27:37;;;;;;;20.60;9.70;;;3.30;99.90;;;;;;5107159;28;20222;-79
2024/02/29 06:30:05;;;;;;;23.10;11.23;;;3.40;96.90;;;;;;5100728;28;20221;-78
2024/02/29 06:32:33;;;;;;;23.50;11.43;;;3.50;68.00;;;;;;5100469;27;20307;-79
2024/02/29 06:35:00;;;;;;;24.63;10.80;;;3.40;44.40;;;;;;5099062;28;20197;-78
2024/02/29 06:37:26;;;;;;;22.20;10.87;;;3.50;1.00;;;;;;5103530;28;20199;-78
2024/02/29 06:39:57;;;;;;;21.67;10.87;;;3.70;1.00;;;;;;5103094;28;20622;-78
2024/02/29 06:42:23;;;;;;;22.90;10.87;;;3.90;1.00;;;;;;5100825;28;20193;-78
2024/02/29 06:44:51;;;;;;;24.10;12.60;;;3.80;1.00;;;;;;5103364;28;20296;-78
2024/02/29 06:47:18;;;;;;;24.67;12.10;;;3.70;1.00;;;;;;5103424;28;20307;-78
2024/02/29 06:49:45;;;;;;;24.47;12.27;;;3.80;1.00;;;;;;5102785;28;20312;-78
2024/02/29 06:52:11;;;;;;;22.77;12.17;;;4.00;1.00;;;;;;5103415;28;20289;-78
2024/02/29 06:54:40;;;;;;;23.83;11.60;;;4.00;1.00;;;;;;5103657;28;20293;-78
2024/02/29 06:57:08;;;;;;;25.40;13.20;;;4.00;1.00;;;;;;5100135;28;20201;-78
2024/02/29 06:59:35;;;;;;;24.73;13.43;;;4.20;1.00;;;;;;5099888;28;20256;-78
2024/02/29 07:02:02;;;;;;;24.43;12.73;;;4.20;1.00;;;;;;5104347;28;20201;-78
2024/02/29 07:04:29;;;;;;;24.17;12.27;;;4.30;1.00;;;;;;5100308;28;20699;-78
2024/02/29 07:06:56;;;;;;;23.07;12.33;;;4.50;1.00;;;;;;5099649;28;20219;-78
2024/02/29 07:09:22;;;;;;;21.97;11.60;;;4.40;1.00;;;;;;5108309;28;20220;-79
2024/02/29 07:11:50;;;;;;;25.47;13.27;;;4.50;1.00;;;;;;5108862;28;20269;-78
2024/02/29 07:14:18;;;;;;;24.97;12.27;;;4.90;1.00;;;;;;5113750;28;20202;-78
2024/02/29 07:16:46;;;;;;;24.17;12.47;;;4.90;1.00;;;;;;5113810;28;20632;-78
2024/02/29 07:19:13;;;;;;;23.13;12.00;;;5.00;1.00;;;;;;5115173;28;20225;-78
2024/02/29 07:21:41;;;;;;;22.77;12.50;;;5.00;1.00;;;;;;5107336;28;20204;-78
2024/02/29 07:24:08;;;;;;;21.23;11.33;;;5.00;1.00;;;;;;5099797;28;20221;-79
2024/02/29 07:26:40;;;;;;;22.37;12.80;;;5.30;1.00;;;;;;5102923;28;20281;-79
2024/02/29 07:29:07;;;;;;;25.23;12.83;;;5.40;1.00;;;;;;5102040;28;20225;-78
2024/02/29 07:31:35;;;;;;;22.00;12.10;;;5.40;1.00;;;;;;5098485;28;20292;-78
2024/02/29 07:34:02;;;;;;;20.77;11.00;;;5.60;1.00;;;;;;5098364;28;20284;-78
2024/02/29 07:36:29;;;;;;;22.33;12.37;;;5.70;1.00;;;;;;5101187;28;20229;-78
2024/02/29 07:38:56;;;;;;;21.97;11.70;;;5.90;1.00;;;;;;5104302;28;20216;-78
2024/02/29 07:41:23;;;;;;;21.97;12.20;;;6.30;99.90;;;;;;5098670;28;20201;-78
2024/02/29 07:43:50;;;;;;;22.27;12.30;;;6.60;99.90;;;;;;5097978;28;20301;-78
2024/02/29 07:46:17;;;;;;;23.50;12.93;;;7.50;99.90;;;;;;5097845;28;20297;-78
2024/02/29 07:48:45;;;;;;;22.57;12.50;;;8.10;99.90;;;;;;5103958;28;20221;-78
2024/02/29 07:51:12;;;;;;;21.57;11.57;;;7.70;99.90;;;;;;5104034;28;20229;-78
2024/02/29 07:53:39;;;;;;;21.77;11.73;;;7.40;99.90;;;;;;5098600;28;20208;-78
2024/02/29 07:56:07;;;;;;;23.47;12.30;;;6.80;99.90;;;;;;5097400;28;20204;-78
2024/02/29 07:58:34;;;;;;;21.70;11.50;;;6.50;99.90;;;;;;5097630;28;20650;-78
2024/02/29 08:01:02;;;;;;;32.43;13.20;;;6.60;99.90;;;;;;5102291;28;20305;-79
2024/02/29 08:03:30;;;;;;;22.70;12.07;;;6.70;99.90;;;;;;5098424;28;20206;-79
2024/02/29 08:05:58;;;;;;;20.80;11.93;;;6.70;99.90;;;;;;5098996;28;20214;-78
2024/02/29 08:08:25;;;;;;;21.20;12.50;;;6.90;99.90;;;;;;5097314;28;20197;-79
2024/02/29 08:10:52;;;;;;;20.83;11.57;;;7.40;99.90;;;;;;5098018;28;20226;-78
2024/02/29 08:13:19;;;;;;;20.57;11.83;;;7.70;99.90;;;;;;5106005;28;20225;-78
2024/02/29 08:15:46;;;;;;;22.13;11.87;;;7.80;99.90;;;;;;5107791;28;20232;-79
2024/02/29 08:18:13;;;;;;;22.47;12.57;;;7.70;99.90;;;;;;5097810;28;20678;-79
2024/02/29 08:20:40;;;;;;;22.07;11.83;;;7.80;99.90;;;;;;5097876;28;20252;-79
2024/02/29 08:23:08;;;;;;;22.17;11.50;;;8.80;99.90;;;;;;5105303;28;20208;-79
2024/02/29 08:25:35;;;;;;;21.17;12.53;;;9.00;9.90;;;;;;5097744;28;20197;-79
2024/02/29 08:28:02;;;;;;;22.23;11.63;;;9.10;1.00;;;;;;5097223;28;20761;-78
2024/02/29 08:30:29;;;;;;;22.50;12.70;;;8.70;1.00;;;;;;5098264;28;20282;-79
2024/02/29 08:32:56;;;;;;;21.83;12.07;;;8.70;1.00;;;;;;5099092;28;20292;-78
2024/02/29 08:35:23;;;;;;;21.10;12.13;;;9.00;1.00;;;;;;5099265;28;20643;-78
2024/02/29 08:37:50;;;;;;;22.60;12.97;;;9.40;1.00;;;;;;5099597;28;20288;-78
2024/02/29 08:40:19;;;;;;;21.40;12.30;;;10.20;1.00;;;;;;5100238;28;20231;-78
2024/02/29 08:42:49;;;;;;;23.60;12.83;;;10.40;1.00;;;;;;5100209;28;20212;-78
2024/02/29 08:45:16;;;;;;;23.73;12.43;;;9.20;1.00;;;;;;5100258;28;20712;-78
2024/02/29 08:47:42;;;;;;;22.37;13.13;;;9.10;1.00;;;;;;5098253;28;20774;-79
2024/02/29 08:50:12;;;;;;;22.50;13.13;;;8.80;1.00;;;;;;5102185;28;20221;-79
2024/02/29 08:52:41;;;;;;;25.33;13.60;;;9.60;1.00;;;;;;5099451;28;20228;-79
2024/02/29 08:55:09;;;;;;;23.67;13.17;;;9.50;1.00;;;;;;5099984;28;20197;-79
2024/02/29 08:57:37;;;;;;;26.60;15.90;;;9.00;1.00;;;;;;5097493;28;20198;-79
2024/02/29 09:00:05;;;;;;;24.23;13.83;;;9.30;1.00;;;;;;5100970;28;20285;-78
2024/02/29 09:02:32;;;;;;;21.90;12.63;;;9.40;1.00;;;;;;5101935;28;20420;-79
2024/02/29 09:04:58;;;;;;;24.83;14.17;;;9.20;1.00;;;;;;5097370;28;20236;-80
2024/02/29 09:07:25;;;;;;;25.50;14.17;;;9.00;1.00;;;;;;5105693;28;20284;-79
2024/02/29 09:09:52;;;;;;;25.73;14.70;;;9.00;1.00;;;;;;5099482;28;20316;-79
2024/02/29 09:12:19;;;;;;;23.03;13.70;;;9.20;1.00;;;;;;5103478;28;20207;-79
2024/02/29 09:14:48;;;;;;;23.73;13.67;;;9.20;1.00;;;;;;5102864;28;20711;-79
2024/02/29 09:17:15;;;;;;;25.37;14.57;;;9.20;1.00;;;;;;5099837;28;20197;-78
2024/02/29 09:19:42;;;;;;;22.37;12.80;;;9.20;1.00;;;;;;5099316;28;20228;-79
2024/02/29 09:22:09;;;;;;;23.20;12.93;;;9.70;1.00;;;;;;5105455;28;20737;-78
2024/02/29 09:24:36;;;;;;;20.43;13.20;;;9.50;1.00;;;;;;5104528;28;20201;-78
2024/02/29 09:27:03;;;;;;;26.57;13.93;;;9.70;1.00;;;;;;5111499;28;20570;-78
2024/02/29 09:29:30;;;;;;;23.30;13.53;;;9.70;1.00;;;;;;5096693;28;20599;-78
2024/02/29 09:31:59;;;;;;;21.87;12.80;;;9.50;1.00;;;;;;5100471;28;20225;-78
2024/02/29 09:34:26;;;;;;;25.43;14.47;;;9.60;1.00;;;;;;5101319;28;20566;-79
2024/02/29 09:36:53;;;;;;;22.13;13.03;;;9.70;1.00;;;;;;5103963;28;20651;-79
2024/02/29 09:39:19;;;;;;;22.20;12.23;;;10.00;1.00;;;;;;5110612;28;20214;-81
2024/02/29 09:41:46;;;;;;;23.17;12.70;;;9.80;1.00;;;;;;5101595;28;20221;-81
2024/02/29 09:44:14;;;;;;;23.67;13.47;;;10.10;1.00;;;;;;5103858;28;20205;-80
2024/02/29 09:46:46;;;;;;;23.30;13.03;;;10.00;1.00;;;;;;5110116;28;20229;-79
2024/02/29 09:49:15;;;;;;;21.77;12.53;;;9.90;1.00;;;;;;5107400;28;20228;-81
2024/02/29 09:51:42;;;;;;;21.17;12.87;;;10.30;1.00;;;;;;5109912;28;20253;-81
2024/02/29 09:54:16;;;;;;;22.83;12.93;;;10.40;1.00;;;;;;5102195;28;20548;-81
2024/02/29 09:56:43;;;;;;;21.93;12.67;;;10.40;1.00;;;;;;5103448;28;20190;-81
2024/02/29 09:59:13;;;;;;;21.10;12.43;;;10.50;1.00;;;;;;5106399;28;20249;-81
2024/02/29 10:01:41;;;;;;;20.40;11.57;;;10.70;1.00;;;;;;5104386;28;20200;-81
2024/02/29 10:04:08;;;;;;;22.10;12.57;;;10.60;1.00;;;;;;5107858;28;20668;-81
2024/02/29 10:06:36;;;;;;;21.67;12.63;;;11.00;1.00;;;;;;5112469;28;20205;-81
2024/02/29 10:09:04;;;;;;;20.93;12.87;;;11.10;1.00;;;;;;5107360;28;20297;-81
2024/02/29 10:11:31;;;;;;;21.20;12.43;;;11.20;1.00;;;;;;5108372;28;20237;-80
2024/02/29 10:14:01;;;;;;;20.50;12.40;;;11.30;1.00;;;;;;5108524;27;20280;-81
2024/02/29 10:16:31;;;;;;;21.37;12.30;;;11.10;1.00;;;;;;5108133;28;20209;-81
2024/02/29 10:18:58;;;;;;;19.47;12.23;;;11.10;1.00;;;;;;5113329;28;20228;-79
2024/02/29 10:21:25;;;;;;;21.80;11.57;;;11.20;1.00;;;;;;5116189;28;20201;-81
2024/02/29 10:23:57;;;;;;;20.87;13.20;;;11.20;1.00;;;;;;5117498;28;20208;-80
2024/02/29 10:26:24;;;;;;;19.70;12.10;;;11.10;1.00;;;;;;5115620;28;20196;-81
2024/02/29 10:28:50;;;;;;;20.60;12.33;;;11.60;1.00;;;;;;5105321;28;20317;-81
2024/02/29 10:31:17;;;;;;;20.87;12.97;;;11.40;1.00;;;;;;5105108;28;20204;-81
2024/02/29 10:33:48;;;;;;;21.77;12.33;;;11.50;1.00;;;;;;5116170;28;20225;-82
2024/02/29 10:36:15;;;;;;;19.93;12.47;;;11.50;1.00;;;;;;5108244;28;20225;-81
2024/02/29 10:38:42;;;;;;;21.83;12.70;;;11.50;1.00;;;;;;5112380;28;20208;-82
2024/02/29 10:41:11;;;;;;;20.67;11.73;;;11.70;1.00;;;;;;5103866;28;20266;-81
2024/02/29 10:43:39;;;;;;;19.13;11.63;;;11.90;1.00;;;;;;5111508;28;20209;-81
2024/02/29 10:46:07;;;;;;;25.70;12.63;;;12.10;1.00;;;;;;5112926;28;20205;-82
2024/02/29 10:48:44;;;;;;;19.80;12.33;;;11.90;1.00;;;;;;5110705;28;20658;-82
2024/02/29 10:51:17;;;;;;;18.30;11.20;;;11.80;1.00;;;;;;5107395;28;20288;-81
2024/02/29 10:53:50;;;;;;;17.73;10.67;;;12.00;1.00;;;;;;5110023;28;20197;-81
2024/02/29 10:56:23;;;;;;;20.37;11.93;;;12.10;1.00;;;;;;5110031;28;20260;-81
2024/02/29 10:58:59;;;;;;;19.43;11.80;;;12.30;1.00;;;;;;5112916;28;20197;-81
2024/02/29 11:01:26;;;;;;;18.67;11.30;;;12.00;1.00;;;;;;5109218;28;20299;-81
2024/02/29 11:03:53;;;;;;;17.67;10.70;;;12.20;1.00;;;;;;5103923;28;20601;-80
2024/02/29 11:06:22;;;;;;;18.30;11.00;;;12.30;1.00;;;;;;5108120;28;20686;-81
2024/02/29 11:08:50;;;;;;;18.53;10.63;;;12.50;1.00;;;;;;5111009;27;20701;-81
2024/02/29 11:11:25;;;;;;;18.37;11.10;;;12.40;1.00;;;;;;5108840;28;20204;-81
2024/02/29 11:14:02;;;;;;;19.50;11.43;;;12.30;1.00;;;;;;5111798;28;20280;-81
2024/02/29 11:16:31;;;;;;;18.53;11.13;;;12.10;1.00;;;;;;5105507;28;20201;-81
2024/02/29 11:19:01;;;;;;;19.80;11.33;;;12.50;1.00;;;;;;5107821;28;20285;-78
2024/02/29 11:21:29;;;;;;;17.67;10.43;;;12.70;1.00;;;;;;5108546;28;20216;-77
2024/02/29 11:24:01;;;;;;;15.57;10.70;;;12.40;1.00;;;;;;5105927;28;20197;-78
2024/02/29 11:26:32;;;;;;;16.30;9.97;;;12.40;1.00;;;;;;5101419;28;20229;-78
2024/02/29 11:28:59;;;;;;;19.13;11.13;;;13.00;1.00;;;;;;5098824;28;20214;-78
2024/02/29 11:31:26;;;;;;;16.13;9.70;;;12.50;1.00;;;;;;5098835;28;20202;-77
2024/02/29 11:33:55;;;;;;;18.67;10.33;;;12.50;1.00;;;;;;5098531;28;20292;-78
2024/02/29 11:36:24;;;;;;;17.30;10.20;;;12.90;1.00;;;;;;5105356;28;20225;-77
2024/02/29 11:38:51;;;;;;;17.13;9.80;;;12.50;1.00;;;;;;5098153;28;20210;-77
2024/02/29 11:41:19;;;;;;;18.17;10.77;;;12.70;1.00;;;;;;5106830;28;20205;-77
2024/02/29 11:43:49;;;;;;;15.63;9.60;;;12.80;1.00;;;;;;5105865;28;20746;-78
2024/02/29 11:46:16;;;;;;;17.10;10.20;;;12.70;1.00;;;;;;5103680;28;20269;-78
2024/02/29 11:48:44;;;;;;;17.57;10.47;;;13.20;1.00;;;;;;5102693;28;20224;-78
2024/02/29 11:51:11;;;;;;;17.27;10.27;;;12.90;1.00;;;;;;5104987;28;20280;-78
2024/02/29 11:53:39;;;;;;;15.43;9.43;;;13.40;1.00;;;;;;5104129;27;20651;-77
2024/02/29 11:56:06;;;;;;;15.93;10.07;;;13.20;99.90;;;;;;5104076;28;20296;-78
2024/02/29 11:58:34;;;;;;;16.60;9.43;;;12.80;99.90;;;;;;5103087;28;20289;-77
2024/02/29 12:01:03;;;;;;;17.60;10.07;;;12.90;99.90;;;;;;5105019;28;20217;-78
2024/02/29 12:03:30;;;;;;;14.87;9.63;;;12.90;99.90;;;;;;5103163;28;20201;-78
2024/02/29 12:05:58;;;;;;;16.50;10.23;;;13.20;99.90;;;;;;5105555;28;20197;-78
2024/02/29 12:08:27;;;;;;;17.37;10.27;;;13.60;99.90;;;;;;5112386;28;20699;-78
2024/02/29 12:10:56;;;;;;;16.70;10.10;;;13.80;99.90;;;;;;5104358;28;20217;-78
2024/02/29 12:13:23;;;;;;;15.37;9.90;;;13.90;99.90;;;;;;5105119;28;20208;-77
2024/02/29 12:15:50;;;;;;;14.20;8.90;;;13.80;99.90;;;;;;5100618;28;20625;-77
2024/02/29 12:18:19;;;;;;;16.40;10.23;;;13.80;99.90;;;;;;5107192;28;20727;-77
2024/02/29 12:20:46;;;;;;;15.53;9.40;;;13.40;99.90;;;;;;5104534;28;20661;-78
2024/02/29 12:23:14;;;;;;;16.38;10.05;;;13.70;99.90;;;;;;5104362;28;20316;-77
2024/02/29 12:25:42;;;;;;;14.67;9.27;;;13.70;99.90;;;;;;5098199;28;20265;-77
2024/02/29 12:28:09;;;;;;;15.90;10.02;;;13.80;99.90;;;;;;5098462;28;20240;-78
2024/02/29 12:30:36;;;;;;;15.55;9.35;;;14.20;99.90;;;;;;5105112;28;20259;-77
2024/02/29 12:33:04;;;;;;;15.93;10.20;;;13.90;99.90;;;;;;5097957;28;20660;-78
2024/02/29 12:35:33;;;;;;;16.63;10.70;;;14.30;99.90;;;;;;5097568;28;20229;-78
2024/02/29 12:38:01;;;;;;;17.47;10.07;;;14.70;99.90;;;;;;5100222;28;20198;-78
2024/02/29 12:40:30;;;;;;;17.98;10.52;;;14.30;99.90;;;;;;5098958;28;20235;-78
2024/02/29 12:42:57;;;;;;;15.30;10.05;;;13.60;99.90;;;;;;5097760;28;20204;-78